sensor_id;sensor_type;location;lat;lon;timestamp;P1;durP1;ratioP1;P2;durP2;ratioP2
434;SDS011;204;48.942;9.256;2023-11-21T00:02:19;3.95;;;1.92;;
434;SDS011;204;48.942;9.256;2023-11-21T00:04:45;4.30;;;1.87;;
434;SDS011;204;48.942;9.256;2023-11-21T00:07:11;4.47;;;1.80;;
434;SDS011;204;48.942;9.256;2023-11-21T00:09:36;4.00;;;2.60;;
434;SDS011;204;48.942;9.256;2023-11-21T00:12:02;2.00;;;1.67;;
434;SDS011;204;48.942;9.256;2023-11-21T00:14:28;5.50;;;1.90;;
434;SDS011;204;48.942;9.256;2023-11-21T00:16:53;4.83;;;1.80;;
434;SDS011;204;48.942;9.256;2023-11-21T00:19:19;3.17;;;1.50;;
434;SDS011;204;48.942;9.256;2023-11-21T00:21:45;4.17;;;1.60;;
434;SDS011;204;48.942;9.256;2023-11-21T00:24:11;2.00;;;1.67;;
434;SDS011;204;48.942;9.256;2023-11-21T00:26:39;6.13;;;2.08;;
434;SDS011;204;48.942;9.256;2023-11-21T00:29:04;8.55;;;2.75;;
434;SDS011;204;48.942;9.256;2023-11-21T00:31:33;2.65;;;1.45;;
434;SDS011;204;48.942;9.256;2023-11-21T00:34:03;3.72;;;2.25;;
434;SDS011;204;48.942;9.256;2023-11-21T00:36:30;3.42;;;1.70;;
434;SDS011;204;48.942;9.256;2023-11-21T00:38:56;15.55;;;3.30;;
434;SDS011;204;48.942;9.256;2023-11-21T00:41:22;7.70;;;3.27;;
434;SDS011;204;48.942;9.256;2023-11-21T00:43:48;7.77;;;2.20;;
434;SDS011;204;48.942;9.256;2023-11-21T00:46:13;7.30;;;2.37;;
434;SDS011;204;48.942;9.256;2023-11-21T00:48:39;4.10;;;2.37;;
434;SDS011;204;48.942;9.256;2023-11-21T00:51:05;4.20;;;2.10;;
434;SDS011;204;48.942;9.256;2023-11-21T00:53:31;5.70;;;2.55;;
434;SDS011;204;48.942;9.256;2023-11-21T00:55:57;9.00;;;3.40;;
434;SDS011;204;48.942;9.256;2023-11-21T00:58:25;7.53;;;2.70;;
434;SDS011;204;48.942;9.256;2023-11-21T01:00:51;3.60;;;2.47;;
434;SDS011;204;48.942;9.256;2023-11-21T01:03:16;7.70;;;2.90;;
434;SDS011;204;48.942;9.256;2023-11-21T01:05:42;9.27;;;2.93;;
434;SDS011;204;48.942;9.256;2023-11-21T01:08:08;3.70;;;2.07;;
434;SDS011;204;48.942;9.256;2023-11-21T01:10:34;4.20;;;2.30;;
434;SDS011;204;48.942;9.256;2023-11-21T01:13:00;4.70;;;2.33;;
434;SDS011;204;48.942;9.256;2023-11-21T01:15:25;3.53;;;2.07;;
434;SDS011;204;48.942;9.256;2023-11-21T01:17:51;5.30;;;2.33;;
434;SDS011;204;48.942;9.256;2023-11-21T01:20:17;4.25;;;2.58;;
434;SDS011;204;48.942;9.256;2023-11-21T01:22:43;4.43;;;2.17;;
434;SDS011;204;48.942;9.256;2023-11-21T01:25:09;4.32;;;2.30;;
434;SDS011;204;48.942;9.256;2023-11-21T01:27:35;8.07;;;3.17;;
434;SDS011;204;48.942;9.256;2023-11-21T01:30:04;5.20;;;2.17;;
434;SDS011;204;48.942;9.256;2023-11-21T01:32:32;4.25;;;2.45;;
434;SDS011;204;48.942;9.256;2023-11-21T01:34:59;5.90;;;2.55;;
434;SDS011;204;48.942;9.256;2023-11-21T01:37:25;2.90;;;2.35;;
434;SDS011;204;48.942;9.256;2023-11-21T01:39:53;5.35;;;2.85;;
434;SDS011;204;48.942;9.256;2023-11-21T01:42:20;4.35;;;2.15;;
434;SDS011;204;48.942;9.256;2023-11-21T01:44:46;5.07;;;2.60;;
434;SDS011;204;48.942;9.256;2023-11-21T01:47:11;6.70;;;2.40;;
434;SDS011;204;48.942;9.256;2023-11-21T01:49:38;6.47;;;1.75;;
434;SDS011;204;48.942;9.256;2023-11-21T01:52:04;5.50;;;2.50;;
434;SDS011;204;48.942;9.256;2023-11-21T01:54:31;4.43;;;2.00;;
434;SDS011;204;48.942;9.256;2023-11-21T01:57:00;5.03;;;2.03;;
434;SDS011;204;48.942;9.256;2023-11-21T01:59:34;4.43;;;1.88;;
434;SDS011;204;48.942;9.256;2023-11-21T02:02:02;3.13;;;1.92;;
434;SDS011;204;48.942;9.256;2023-11-21T02:04:34;2.00;;;1.80;;
434;SDS011;204;48.942;9.256;2023-11-21T02:07:01;3.45;;;1.98;;
434;SDS011;204;48.942;9.256;2023-11-21T02:09:30;4.22;;;2.45;;
434;SDS011;204;48.942;9.256;2023-11-21T02:11:56;6.43;;;2.53;;
434;SDS011;204;48.942;9.256;2023-11-21T02:14:23;4.57;;;1.83;;
434;SDS011;204;48.942;9.256;2023-11-21T02:16:51;4.75;;;1.75;;
434;SDS011;204;48.942;9.256;2023-11-21T02:19:18;5.63;;;1.92;;
434;SDS011;204;48.942;9.256;2023-11-21T02:21:45;4.18;;;2.20;;
434;SDS011;204;48.942;9.256;2023-11-21T02:24:13;3.72;;;2.10;;
434;SDS011;204;48.942;9.256;2023-11-21T02:26:38;4.00;;;1.77;;
434;SDS011;204;48.942;9.256;2023-11-21T02:29:04;4.57;;;2.07;;
434;SDS011;204;48.942;9.256;2023-11-21T02:31:29;3.30;;;1.80;;
434;SDS011;204;48.942;9.256;2023-11-21T02:33:57;4.30;;;2.38;;
434;SDS011;204;48.942;9.256;2023-11-21T02:36:23;3.50;;;1.73;;
434;SDS011;204;48.942;9.256;2023-11-21T02:38:49;3.30;;;1.83;;
434;SDS011;204;48.942;9.256;2023-11-21T02:41:15;5.03;;;1.88;;
434;SDS011;204;48.942;9.256;2023-11-21T02:43:40;3.30;;;1.47;;
434;SDS011;204;48.942;9.256;2023-11-21T02:46:06;7.87;;;2.03;;
434;SDS011;204;48.942;9.256;2023-11-21T02:48:33;4.68;;;1.88;;
434;SDS011;204;48.942;9.256;2023-11-21T02:50:59;3.33;;;1.73;;
434;SDS011;204;48.942;9.256;2023-11-21T02:53:24;5.00;;;2.37;;
434;SDS011;204;48.942;9.256;2023-11-21T02:55:50;2.60;;;1.65;;
434;SDS011;204;48.942;9.256;2023-11-21T02:58:16;4.80;;;2.15;;
434;SDS011;204;48.942;9.256;2023-11-21T03:00:42;3.70;;;1.70;;
434;SDS011;204;48.942;9.256;2023-11-21T03:03:08;2.57;;;1.40;;
434;SDS011;204;48.942;9.256;2023-11-21T03:05:33;2.07;;;1.40;;
434;SDS011;204;48.942;9.256;2023-11-21T03:08:00;6.32;;;2.38;;
434;SDS011;204;48.942;9.256;2023-11-21T03:10:26;5.37;;;2.57;;
434;SDS011;204;48.942;9.256;2023-11-21T03:12:52;3.20;;;1.53;;
434;SDS011;204;48.942;9.256;2023-11-21T03:15:17;4.50;;;2.00;;
434;SDS011;204;48.942;9.256;2023-11-21T03:17:43;3.33;;;1.73;;
434;SDS011;204;48.942;9.256;2023-11-21T03:20:09;5.33;;;2.10;;
434;SDS011;204;48.942;9.256;2023-11-21T03:22:36;5.63;;;2.30;;
434;SDS011;204;48.942;9.256;2023-11-21T03:25:02;2.80;;;1.52;;
434;SDS011;204;48.942;9.256;2023-11-21T03:27:28;2.55;;;1.33;;
434;SDS011;204;48.942;9.256;2023-11-21T03:29:54;1.90;;;1.80;;
434;SDS011;204;48.942;9.256;2023-11-21T03:32:19;1.37;;;1.17;;
434;SDS011;204;48.942;9.256;2023-11-21T03:34:55;5.40;;;1.83;;
434;SDS011;204;48.942;9.256;2023-11-21T03:37:22;5.20;;;2.40;;
434;SDS011;204;48.942;9.256;2023-11-21T03:39:48;3.60;;;1.70;;
434;SDS011;204;48.942;9.256;2023-11-21T03:42:14;3.53;;;2.00;;
434;SDS011;204;48.942;9.256;2023-11-21T03:44:40;3.27;;;1.50;;
434;SDS011;204;48.942;9.256;2023-11-21T03:47:05;1.83;;;1.57;;
434;SDS011;204;48.942;9.256;2023-11-21T03:49:31;3.40;;;1.37;;
434;SDS011;204;48.942;9.256;2023-11-21T03:51:56;3.37;;;1.40;;
434;SDS011;204;48.942;9.256;2023-11-21T03:54:22;3.37;;;1.53;;
434;SDS011;204;48.942;9.256;2023-11-21T03:56:47;4.43;;;1.70;;
434;SDS011;204;48.942;9.256;2023-11-21T03:59:13;3.00;;;1.43;;
434;SDS011;204;48.942;9.256;2023-11-21T04:01:38;4.90;;;1.90;;
434;SDS011;204;48.942;9.256;2023-11-21T04:04:04;4.23;;;1.87;;
434;SDS011;204;48.942;9.256;2023-11-21T04:06:30;3.30;;;2.33;;
434;SDS011;204;48.942;9.256;2023-11-21T04:08:57;2.80;;;2.08;;
434;SDS011;204;48.942;9.256;2023-11-21T04:11:23;3.23;;;1.97;;
434;SDS011;204;48.942;9.256;2023-11-21T04:13:49;2.07;;;1.70;;
434;SDS011;204;48.942;9.256;2023-11-21T04:16:14;4.63;;;1.70;;
434;SDS011;204;48.942;9.256;2023-11-21T04:18:40;3.03;;;2.50;;
434;SDS011;204;48.942;9.256;2023-11-21T04:21:06;5.17;;;1.93;;
434;SDS011;204;48.942;9.256;2023-11-21T04:23:32;3.63;;;1.80;;
434;SDS011;204;48.942;9.256;2023-11-21T04:25:58;2.05;;;1.60;;
434;SDS011;204;48.942;9.256;2023-11-21T04:28:24;3.07;;;1.67;;
434;SDS011;204;48.942;9.256;2023-11-21T04:30:50;3.60;;;2.70;;
434;SDS011;204;48.942;9.256;2023-11-21T04:33:16;5.40;;;1.70;;
434;SDS011;204;48.942;9.256;2023-11-21T04:35:41;1.73;;;1.73;;
434;SDS011;204;48.942;9.256;2023-11-21T04:38:07;3.33;;;1.73;;
434;SDS011;204;48.942;9.256;2023-11-21T04:40:33;2.37;;;2.00;;
434;SDS011;204;48.942;9.256;2023-11-21T04:42:58;3.63;;;1.70;;
434;SDS011;204;48.942;9.256;2023-11-21T04:45:24;4.97;;;2.13;;
434;SDS011;204;48.942;9.256;2023-11-21T04:47:49;2.20;;;2.03;;
434;SDS011;204;48.942;9.256;2023-11-21T04:50:15;4.03;;;1.83;;
434;SDS011;204;48.942;9.256;2023-11-21T04:52:41;5.30;;;1.70;;
434;SDS011;204;48.942;9.256;2023-11-21T04:55:06;3.93;;;1.83;;
434;SDS011;204;48.942;9.256;2023-11-21T04:57:35;2.78;;;2.25;;
434;SDS011;204;48.942;9.256;2023-11-21T05:00:06;2.92;;;2.17;;
434;SDS011;204;48.942;9.256;2023-11-21T05:02:33;4.38;;;2.40;;
434;SDS011;204;48.942;9.256;2023-11-21T05:05:00;6.03;;;2.60;;
434;SDS011;204;48.942;9.256;2023-11-21T05:07:26;4.43;;;2.20;;
434;SDS011;204;48.942;9.256;2023-11-21T05:09:54;3.17;;;2.13;;
434;SDS011;204;48.942;9.256;2023-11-21T05:12:21;3.95;;;2.28;;
434;SDS011;204;48.942;9.256;2023-11-21T05:14:50;5.35;;;2.50;;
434;SDS011;204;48.942;9.256;2023-11-21T05:17:16;5.87;;;2.07;;
434;SDS011;204;48.942;9.256;2023-11-21T05:19:42;4.17;;;2.50;;
434;SDS011;204;48.942;9.256;2023-11-21T05:22:08;3.70;;;2.20;;
434;SDS011;204;48.942;9.256;2023-11-21T05:24:33;4.13;;;2.63;;
434;SDS011;204;48.942;9.256;2023-11-21T05:27:00;3.92;;;2.47;;
434;SDS011;204;48.942;9.256;2023-11-21T05:29:25;2.90;;;2.20;;
434;SDS011;204;48.942;9.256;2023-11-21T05:31:51;2.80;;;1.80;;
434;SDS011;204;48.942;9.256;2023-11-21T05:34:18;2.50;;;1.98;;
434;SDS011;204;48.942;9.256;2023-11-21T05:36:43;4.90;;;1.90;;
434;SDS011;204;48.942;9.256;2023-11-21T05:39:12;2.80;;;2.58;;
434;SDS011;204;48.942;9.256;2023-11-21T05:41:39;2.53;;;2.35;;
434;SDS011;204;48.942;9.256;2023-11-21T05:44:04;4.00;;;2.83;;
434;SDS011;204;48.942;9.256;2023-11-21T05:46:30;3.10;;;2.50;;
434;SDS011;204;48.942;9.256;2023-11-21T05:48:55;3.97;;;2.50;;
434;SDS011;204;48.942;9.256;2023-11-21T05:51:21;4.07;;;2.10;;
434;SDS011;204;48.942;9.256;2023-11-21T05:53:47;3.13;;;2.20;;
434;SDS011;204;48.942;9.256;2023-11-21T05:56:12;3.00;;;2.30;;
434;SDS011;204;48.942;9.256;2023-11-21T05:58:38;3.07;;;2.23;;
434;SDS011;204;48.942;9.256;2023-11-21T06:01:05;2.63;;;2.40;;
434;SDS011;204;48.942;9.256;2023-11-21T06:03:32;2.08;;;1.83;;
434;SDS011;204;48.942;9.256;2023-11-21T06:05:58;3.93;;;2.33;;
434;SDS011;204;48.942;9.256;2023-11-21T06:08:23;3.80;;;1.77;;
434;SDS011;204;48.942;9.256;2023-11-21T06:10:49;2.87;;;2.43;;
434;SDS011;204;48.942;9.256;2023-11-21T06:13:15;2.63;;;2.30;;
434;SDS011;204;48.942;9.256;2023-11-21T06:15:41;2.40;;;1.93;;
434;SDS011;204;48.942;9.256;2023-11-21T06:18:07;2.65;;;1.83;;
434;SDS011;204;48.942;9.256;2023-11-21T06:20:35;2.45;;;1.98;;
434;SDS011;204;48.942;9.256;2023-11-21T06:23:02;2.95;;;1.92;;
434;SDS011;204;48.942;9.256;2023-11-21T06:25:28;4.53;;;2.40;;
434;SDS011;204;48.942;9.256;2023-11-21T06:27:54;1.65;;;1.63;;
434;SDS011;204;48.942;9.256;2023-11-21T06:30:21;4.70;;;2.60;;
434;SDS011;204;48.942;9.256;2023-11-21T06:32:48;2.92;;;1.95;;
434;SDS011;204;48.942;9.256;2023-11-21T06:35:14;3.60;;;2.22;;
434;SDS011;204;48.942;9.256;2023-11-21T06:37:40;2.30;;;1.90;;
434;SDS011;204;48.942;9.256;2023-11-21T06:40:06;4.10;;;1.97;;
434;SDS011;204;48.942;9.256;2023-11-21T06:42:32;3.45;;;2.10;;
434;SDS011;204;48.942;9.256;2023-11-21T06:45:03;2.13;;;1.98;;
434;SDS011;204;48.942;9.256;2023-11-21T06:47:29;4.72;;;3.22;;
434;SDS011;204;48.942;9.256;2023-11-21T06:49:55;8.75;;;3.28;;
434;SDS011;204;48.942;9.256;2023-11-21T06:52:22;6.43;;;3.22;;
434;SDS011;204;48.942;9.256;2023-11-21T06:54:48;3.57;;;2.90;;
434;SDS011;204;48.942;9.256;2023-11-21T06:57:16;4.05;;;3.03;;
434;SDS011;204;48.942;9.256;2023-11-21T06:59:42;2.60;;;2.40;;
434;SDS011;204;48.942;9.256;2023-11-21T07:02:08;4.87;;;3.50;;
434;SDS011;204;48.942;9.256;2023-11-21T07:04:34;4.70;;;3.70;;
434;SDS011;204;48.942;9.256;2023-11-21T07:07:03;3.70;;;3.50;;
434;SDS011;204;48.942;9.256;2023-11-21T07:09:29;3.10;;;2.90;;
434;SDS011;204;48.942;9.256;2023-11-21T07:11:56;3.83;;;2.33;;
434;SDS011;204;48.942;9.256;2023-11-21T07:14:21;3.03;;;2.27;;
434;SDS011;204;48.942;9.256;2023-11-21T07:16:47;2.47;;;1.90;;
434;SDS011;204;48.942;9.256;2023-11-21T07:19:13;5.77;;;2.63;;
434;SDS011;204;48.942;9.256;2023-11-21T07:21:39;2.57;;;2.10;;
434;SDS011;204;48.942;9.256;2023-11-21T07:24:06;2.63;;;1.88;;
434;SDS011;204;48.942;9.256;2023-11-21T07:26:32;4.45;;;2.92;;
434;SDS011;204;48.942;9.256;2023-11-21T07:28:59;3.10;;;2.90;;
434;SDS011;204;48.942;9.256;2023-11-21T07:31:25;2.15;;;1.75;;
434;SDS011;204;48.942;9.256;2023-11-21T07:33:51;2.80;;;1.95;;
434;SDS011;204;48.942;9.256;2023-11-21T07:36:17;3.53;;;2.00;;
434;SDS011;204;48.942;9.256;2023-11-21T07:38:46;2.75;;;2.42;;
434;SDS011;204;48.942;9.256;2023-11-21T07:41:13;4.47;;;2.55;;
434;SDS011;204;48.942;9.256;2023-11-21T07:43:42;3.63;;;1.90;;
434;SDS011;204;48.942;9.256;2023-11-21T07:46:08;2.10;;;1.70;;
434;SDS011;204;48.942;9.256;2023-11-21T07:48:34;3.50;;;2.03;;
434;SDS011;204;48.942;9.256;2023-11-21T07:51:00;2.38;;;2.15;;
434;SDS011;204;48.942;9.256;2023-11-21T07:53:28;3.75;;;2.15;;
434;SDS011;204;48.942;9.256;2023-11-21T07:55:55;3.05;;;1.95;;
434;SDS011;204;48.942;9.256;2023-11-21T07:58:27;2.97;;;2.25;;
434;SDS011;204;48.942;9.256;2023-11-21T08:00:53;4.57;;;2.30;;
434;SDS011;204;48.942;9.256;2023-11-21T08:03:19;2.97;;;2.50;;
434;SDS011;204;48.942;9.256;2023-11-21T08:05:44;3.30;;;2.03;;
434;SDS011;204;48.942;9.256;2023-11-21T08:08:10;4.13;;;2.40;;
434;SDS011;204;48.942;9.256;2023-11-21T08:10:36;2.67;;;2.00;;
434;SDS011;204;48.942;9.256;2023-11-21T08:13:02;3.70;;;2.70;;
434;SDS011;204;48.942;9.256;2023-11-21T08:15:29;3.42;;;2.83;;
434;SDS011;204;48.942;9.256;2023-11-21T08:17:56;3.10;;;2.03;;
434;SDS011;204;48.942;9.256;2023-11-21T08:20:23;3.33;;;2.67;;
434;SDS011;204;48.942;9.256;2023-11-21T08:22:50;6.05;;;2.15;;
434;SDS011;204;48.942;9.256;2023-11-21T08:25:16;2.28;;;2.08;;
434;SDS011;204;48.942;9.256;2023-11-21T08:27:44;2.30;;;2.10;;
434;SDS011;204;48.942;9.256;2023-11-21T08:30:10;2.27;;;2.07;;
434;SDS011;204;48.942;9.256;2023-11-21T08:32:37;3.13;;;2.50;;
434;SDS011;204;48.942;9.256;2023-11-21T08:35:03;3.23;;;3.03;;
434;SDS011;204;48.942;9.256;2023-11-21T08:37:29;2.75;;;2.60;;
434;SDS011;204;48.942;9.256;2023-11-21T08:39:57;3.58;;;2.35;;
434;SDS011;204;48.942;9.256;2023-11-21T08:42:24;4.40;;;2.53;;
434;SDS011;204;48.942;9.256;2023-11-21T08:44:49;2.63;;;1.90;;
434;SDS011;204;48.942;9.256;2023-11-21T08:47:16;2.05;;;1.73;;
434;SDS011;204;48.942;9.256;2023-11-21T08:49:41;2.60;;;1.80;;
434;SDS011;204;48.942;9.256;2023-11-21T08:52:07;1.23;;;1.13;;
434;SDS011;204;48.942;9.256;2023-11-21T08:54:33;2.15;;;1.40;;
434;SDS011;204;48.942;9.256;2023-11-21T08:56:59;2.20;;;1.90;;
434;SDS011;204;48.942;9.256;2023-11-21T08:59:25;2.65;;;1.67;;
434;SDS011;204;48.942;9.256;2023-11-21T09:01:51;2.67;;;1.77;;
434;SDS011;204;48.942;9.256;2023-11-21T09:04:17;1.83;;;1.23;;
434;SDS011;204;48.942;9.256;2023-11-21T09:06:42;1.30;;;1.03;;
434;SDS011;204;48.942;9.256;2023-11-21T09:09:08;2.30;;;1.20;;
434;SDS011;204;48.942;9.256;2023-11-21T09:11:35;1.90;;;1.80;;
434;SDS011;204;48.942;9.256;2023-11-21T09:14:01;2.78;;;1.80;;
434;SDS011;204;48.942;9.256;2023-11-21T09:16:31;1.20;;;1.10;;
434;SDS011;204;48.942;9.256;2023-11-21T09:18:56;2.60;;;2.00;;
434;SDS011;204;48.942;9.256;2023-11-21T09:21:22;1.80;;;1.70;;
434;SDS011;204;48.942;9.256;2023-11-21T09:23:49;1.40;;;1.10;;
434;SDS011;204;48.942;9.256;2023-11-21T09:26:14;1.20;;;1.20;;
434;SDS011;204;48.942;9.256;2023-11-21T09:28:41;1.38;;;1.27;;
434;SDS011;204;48.942;9.256;2023-11-21T09:31:11;2.33;;;1.00;;
434;SDS011;204;48.942;9.256;2023-11-21T09:33:37;3.63;;;2.60;;
434;SDS011;204;48.942;9.256;2023-11-21T09:36:03;1.27;;;1.27;;
434;SDS011;204;48.942;9.256;2023-11-21T09:38:30;2.17;;;1.30;;
434;SDS011;204;48.942;9.256;2023-11-21T09:40:55;2.67;;;1.60;;
434;SDS011;204;48.942;9.256;2023-11-21T09:43:23;1.88;;;1.40;;
434;SDS011;204;48.942;9.256;2023-11-21T09:46:02;1.17;;;1.08;;
434;SDS011;204;48.942;9.256;2023-11-21T09:48:35;1.88;;;1.30;;
434;SDS011;204;48.942;9.256;2023-11-21T09:51:03;1.25;;;0.95;;
434;SDS011;204;48.942;9.256;2023-11-21T09:53:29;1.42;;;1.33;;
434;SDS011;204;48.942;9.256;2023-11-21T09:55:58;1.10;;;1.05;;
434;SDS011;204;48.942;9.256;2023-11-21T09:58:25;1.67;;;1.42;;
434;SDS011;204;48.942;9.256;2023-11-21T10:00:55;3.50;;;1.52;;
434;SDS011;204;48.942;9.256;2023-11-21T10:03:24;3.83;;;1.92;;
434;SDS011;204;48.942;9.256;2023-11-21T10:05:50;1.77;;;1.50;;
434;SDS011;204;48.942;9.256;2023-11-21T10:08:17;1.70;;;1.60;;
434;SDS011;204;48.942;9.256;2023-11-21T10:10:46;1.88;;;1.77;;
434;SDS011;204;48.942;9.256;2023-11-21T10:13:13;1.67;;;1.45;;
434;SDS011;204;48.942;9.256;2023-11-21T10:15:41;1.88;;;1.20;;
434;SDS011;204;48.942;9.256;2023-11-21T10:18:13;1.10;;;1.00;;
434;SDS011;204;48.942;9.256;2023-11-21T10:20:40;2.15;;;1.13;;
434;SDS011;204;48.942;9.256;2023-11-21T10:23:06;2.65;;;1.30;;
434;SDS011;204;48.942;9.256;2023-11-21T10:25:36;1.08;;;1.00;;
434;SDS011;204;48.942;9.256;2023-11-21T10:28:02;1.15;;;1.05;;
434;SDS011;204;48.942;9.256;2023-11-21T10:30:35;1.65;;;1.00;;
434;SDS011;204;48.942;9.256;2023-11-21T10:33:03;1.20;;;1.10;;
434;SDS011;204;48.942;9.256;2023-11-21T10:35:39;2.55;;;1.75;;
434;SDS011;204;48.942;9.256;2023-11-21T10:38:19;2.13;;;1.55;;
434;SDS011;204;48.942;9.256;2023-11-21T10:40:49;1.65;;;1.55;;
434;SDS011;204;48.942;9.256;2023-11-21T10:43:15;1.35;;;1.25;;
434;SDS011;204;48.942;9.256;2023-11-21T10:45:42;3.42;;;2.53;;
434;SDS011;204;48.942;9.256;2023-11-21T10:48:09;3.95;;;3.42;;
434;SDS011;204;48.942;9.256;2023-11-21T10:50:37;4.47;;;4.18;;
434;SDS011;204;48.942;9.256;2023-11-21T10:53:03;2.25;;;2.00;;
434;SDS011;204;48.942;9.256;2023-11-21T10:55:30;7.15;;;2.90;;
434;SDS011;204;48.942;9.256;2023-11-21T10:57:58;3.83;;;3.63;;
434;SDS011;204;48.942;9.256;2023-11-21T11:00:27;3.40;;;3.20;;
434;SDS011;204;48.942;9.256;2023-11-21T11:02:53;2.83;;;2.08;;
434;SDS011;204;48.942;9.256;2023-11-21T11:05:20;2.63;;;2.42;;
434;SDS011;204;48.942;9.256;2023-11-21T11:07:48;3.00;;;2.80;;
434;SDS011;204;48.942;9.256;2023-11-21T11:10:19;2.53;;;2.33;;
434;SDS011;204;48.942;9.256;2023-11-21T11:12:51;1.85;;;1.80;;
434;SDS011;204;48.942;9.256;2023-11-21T11:15:19;1.50;;;1.40;;
434;SDS011;204;48.942;9.256;2023-11-21T11:17:45;2.78;;;2.13;;
434;SDS011;204;48.942;9.256;2023-11-21T11:20:12;2.50;;;2.30;;
434;SDS011;204;48.942;9.256;2023-11-21T11:25:45;2.20;;;2.03;;
434;SDS011;204;48.942;9.256;2023-11-21T11:28:29;2.10;;;1.95;;
434;SDS011;204;48.942;9.256;2023-11-21T11:31:23;2.53;;;2.33;;
434;SDS011;204;48.942;9.256;2023-11-21T11:34:24;3.40;;;3.05;;
434;SDS011;204;48.942;9.256;2023-11-21T11:37:04;2.65;;;2.45;;
434;SDS011;204;48.942;9.256;2023-11-21T11:39:37;2.78;;;2.58;;
434;SDS011;204;48.942;9.256;2023-11-21T11:42:07;2.42;;;2.28;;
434;SDS011;204;48.942;9.256;2023-11-21T11:47:14;2.40;;;2.28;;
434;SDS011;204;48.942;9.256;2023-11-21T11:52:47;2.72;;;2.60;;
434;SDS011;204;48.942;9.256;2023-11-21T11:55:18;2.92;;;2.80;;
434;SDS011;204;48.942;9.256;2023-11-21T11:57:49;2.35;;;2.15;;
434;SDS011;204;48.942;9.256;2023-11-21T12:00:20;2.42;;;2.22;;
434;SDS011;204;48.942;9.256;2023-11-21T12:02:54;3.30;;;3.10;;
434;SDS011;204;48.942;9.256;2023-11-21T12:05:23;2.50;;;2.30;;
434;SDS011;204;48.942;9.256;2023-11-21T12:07:53;2.50;;;2.30;;
434;SDS011;204;48.942;9.256;2023-11-21T12:10:20;3.78;;;3.60;;
434;SDS011;204;48.942;9.256;2023-11-21T12:12:49;2.38;;;2.17;;
434;SDS011;204;48.942;9.256;2023-11-21T12:15:20;3.20;;;2.15;;
434;SDS011;204;48.942;9.256;2023-11-21T12:17:47;3.83;;;2.10;;
434;SDS011;204;48.942;9.256;2023-11-21T12:20:20;2.88;;;2.67;;
434;SDS011;204;48.942;9.256;2023-11-21T12:22:50;3.45;;;3.25;;
434;SDS011;204;48.942;9.256;2023-11-21T12:25:18;3.38;;;3.17;;
434;SDS011;204;48.942;9.256;2023-11-21T12:27:46;3.40;;;3.20;;
434;SDS011;204;48.942;9.256;2023-11-21T12:30:14;3.55;;;3.35;;
434;SDS011;204;48.942;9.256;2023-11-21T12:32:47;2.88;;;2.67;;
434;SDS011;204;48.942;9.256;2023-11-21T12:35:14;4.03;;;3.13;;
434;SDS011;204;48.942;9.256;2023-11-21T12:37:44;2.15;;;1.95;;
434;SDS011;204;48.942;9.256;2023-11-21T12:40:12;3.55;;;2.50;;
434;SDS011;204;48.942;9.256;2023-11-21T12:42:46;2.58;;;2.38;;
434;SDS011;204;48.942;9.256;2023-11-21T12:47:40;8.30;;;4.37;;
434;SDS011;204;48.942;9.256;2023-11-21T12:50:08;4.53;;;3.70;;
434;SDS011;204;48.942;9.256;2023-11-21T12:52:40;3.30;;;2.88;;
434;SDS011;204;48.942;9.256;2023-11-21T12:55:21;3.13;;;2.22;;
434;SDS011;204;48.942;9.256;2023-11-21T12:57:49;2.72;;;2.53;;
434;SDS011;204;48.942;9.256;2023-11-21T13:00:32;2.67;;;2.53;;
434;SDS011;204;48.942;9.256;2023-11-21T13:03:02;2.20;;;2.00;;
434;SDS011;204;48.942;9.256;2023-11-21T13:07:56;2.53;;;1.70;;
434;SDS011;204;48.942;9.256;2023-11-21T13:10:26;1.30;;;1.20;;
434;SDS011;204;48.942;9.256;2023-11-21T13:12:55;2.00;;;1.63;;
434;SDS011;204;48.942;9.256;2023-11-21T13:15:24;2.20;;;1.30;;
434;SDS011;204;48.942;9.256;2023-11-21T13:17:52;1.98;;;1.42;;
434;SDS011;204;48.942;9.256;2023-11-21T13:20:19;1.20;;;1.10;;
434;SDS011;204;48.942;9.256;2023-11-21T13:22:55;1.10;;;1.00;;
434;SDS011;204;48.942;9.256;2023-11-21T13:25:26;3.30;;;1.40;;
434;SDS011;204;48.942;9.256;2023-11-21T13:27:55;1.33;;;0.90;;
434;SDS011;204;48.942;9.256;2023-11-21T13:30:26;0.70;;;0.60;;
434;SDS011;204;48.942;9.256;2023-11-21T13:32:55;0.52;;;0.50;;
434;SDS011;204;48.942;9.256;2023-11-21T13:35:22;1.08;;;0.52;;
434;SDS011;204;48.942;9.256;2023-11-21T13:38:02;1.48;;;0.60;;
434;SDS011;204;48.942;9.256;2023-11-21T13:40:32;0.80;;;0.75;;
434;SDS011;204;48.942;9.256;2023-11-21T13:43:10;0.80;;;0.77;;
434;SDS011;204;48.942;9.256;2023-11-21T13:45:36;0.90;;;0.68;;
434;SDS011;204;48.942;9.256;2023-11-21T13:48:04;0.90;;;0.80;;
434;SDS011;204;48.942;9.256;2023-11-21T13:50:33;1.23;;;1.13;;
434;SDS011;204;48.942;9.256;2023-11-21T13:53:00;0.90;;;0.80;;
434;SDS011;204;48.942;9.256;2023-11-21T13:55:33;0.70;;;0.65;;
434;SDS011;204;48.942;9.256;2023-11-21T13:58:00;1.25;;;1.00;;
434;SDS011;204;48.942;9.256;2023-11-21T14:00:28;0.70;;;0.60;;
434;SDS011;204;48.942;9.256;2023-11-21T14:03:06;2.35;;;0.98;;
434;SDS011;204;48.942;9.256;2023-11-21T14:05:42;1.00;;;0.90;;
434;SDS011;204;48.942;9.256;2023-11-21T14:08:09;1.10;;;1.00;;
434;SDS011;204;48.942;9.256;2023-11-21T14:10:37;1.00;;;0.90;;
434;SDS011;204;48.942;9.256;2023-11-21T14:13:08;1.42;;;0.93;;
434;SDS011;204;48.942;9.256;2023-11-21T14:15:35;1.40;;;1.00;;
434;SDS011;204;48.942;9.256;2023-11-21T14:18:07;2.35;;;1.13;;
434;SDS011;204;48.942;9.256;2023-11-21T14:20:35;1.25;;;1.00;;
434;SDS011;204;48.942;9.256;2023-11-21T14:23:02;1.58;;;0.75;;
434;SDS011;204;48.942;9.256;2023-11-21T14:25:31;1.35;;;1.10;;
434;SDS011;204;48.942;9.256;2023-11-21T14:27:57;1.65;;;1.10;;
434;SDS011;204;48.942;9.256;2023-11-21T14:30:22;1.50;;;1.40;;
434;SDS011;204;48.942;9.256;2023-11-21T14:32:48;1.27;;;1.20;;
434;SDS011;204;48.942;9.256;2023-11-21T14:35:15;3.83;;;1.20;;
434;SDS011;204;48.942;9.256;2023-11-21T14:37:41;1.60;;;1.30;;
434;SDS011;204;48.942;9.256;2023-11-21T14:40:08;1.40;;;1.30;;
434;SDS011;204;48.942;9.256;2023-11-21T14:42:34;1.90;;;1.20;;
434;SDS011;204;48.942;9.256;2023-11-21T14:45:03;1.40;;;1.30;;
434;SDS011;204;48.942;9.256;2023-11-21T14:47:31;2.25;;;1.70;;
434;SDS011;204;48.942;9.256;2023-11-21T14:49:59;3.85;;;1.73;;
434;SDS011;204;48.942;9.256;2023-11-21T14:52:37;1.55;;;1.48;;
434;SDS011;204;48.942;9.256;2023-11-21T14:55:18;2.25;;;1.90;;
434;SDS011;204;48.942;9.256;2023-11-21T14:57:46;2.58;;;2.00;;
434;SDS011;204;48.942;9.256;2023-11-21T15:00:16;2.20;;;2.00;;
434;SDS011;204;48.942;9.256;2023-11-21T15:03:02;2.88;;;2.20;;
434;SDS011;204;48.942;9.256;2023-11-21T15:05:29;3.15;;;2.33;;
434;SDS011;204;48.942;9.256;2023-11-21T15:07:55;2.83;;;2.63;;
434;SDS011;204;48.942;9.256;2023-11-21T15:10:23;2.63;;;2.42;;
434;SDS011;204;48.942;9.256;2023-11-21T15:13:10;2.63;;;2.25;;
434;SDS011;204;48.942;9.256;2023-11-21T15:15:36;3.60;;;2.70;;
434;SDS011;204;48.942;9.256;2023-11-21T15:18:02;2.70;;;2.50;;
434;SDS011;204;48.942;9.256;2023-11-21T15:20:28;3.30;;;3.10;;
434;SDS011;204;48.942;9.256;2023-11-21T15:22:55;3.50;;;3.33;;
434;SDS011;204;48.942;9.256;2023-11-21T15:25:21;4.63;;;3.67;;
434;SDS011;204;48.942;9.256;2023-11-21T15:27:47;4.63;;;2.97;;
434;SDS011;204;48.942;9.256;2023-11-21T15:30:15;3.63;;;3.50;;
434;SDS011;204;48.942;9.256;2023-11-21T15:32:44;3.75;;;3.55;;
434;SDS011;204;48.942;9.256;2023-11-21T15:35:10;5.03;;;3.50;;
434;SDS011;204;48.942;9.256;2023-11-21T15:37:38;3.85;;;3.35;;
434;SDS011;204;48.942;9.256;2023-11-21T15:40:04;4.30;;;3.63;;
434;SDS011;204;48.942;9.256;2023-11-21T15:42:31;5.05;;;4.00;;
434;SDS011;204;48.942;9.256;2023-11-21T15:44:56;3.40;;;3.00;;
434;SDS011;204;48.942;9.256;2023-11-21T15:47:22;4.60;;;3.60;;
434;SDS011;204;48.942;9.256;2023-11-21T15:49:48;4.07;;;3.87;;
434;SDS011;204;48.942;9.256;2023-11-21T15:52:13;4.30;;;3.80;;
434;SDS011;204;48.942;9.256;2023-11-21T15:54:39;4.87;;;4.37;;
434;SDS011;204;48.942;9.256;2023-11-21T15:57:05;4.43;;;4.13;;
434;SDS011;204;48.942;9.256;2023-11-21T15:59:31;3.90;;;3.53;;
434;SDS011;204;48.942;9.256;2023-11-21T16:01:58;6.72;;;4.20;;